地図

経路データ

SID SEASON NUMBER BASIN SUBBASIN NAME ISO_TIME NATURE LAT LON WMO_WIND WMO_PRES WMO_AGENCY TRACK_TYPE DIST2LAND LANDFALL IFLAG USA_AGENCY USA_ATCF_ID USA_LAT USA_LON USA_RECORD USA_STATUS USA_WIND USA_PRES USA_SSHS USA_R34_NE USA_R34_SE USA_R34_SW USA_R34_NW USA_R50_NE USA_R50_SE USA_R50_SW USA_R50_NW USA_R64_NE USA_R64_SE USA_R64_SW USA_R64_NW USA_POCI USA_ROCI USA_RMW USA_EYE TOKYO_LAT TOKYO_LON TOKYO_GRADE TOKYO_WIND TOKYO_PRES TOKYO_R50_DIR TOKYO_R50_LONG TOKYO_R50_SHORT TOKYO_R30_DIR TOKYO_R30_LONG TOKYO_R30_SHORT TOKYO_LAND CMA_LAT CMA_LON CMA_CAT CMA_WIND CMA_PRES HKO_LAT HKO_LON HKO_CAT HKO_WIND HKO_PRES NEWDELHI_LAT NEWDELHI_LON NEWDELHI_GRADE NEWDELHI_WIND NEWDELHI_PRES NEWDELHI_CI NEWDELHI_DP NEWDELHI_POCI REUNION_LAT REUNION_LON REUNION_TYPE REUNION_WIND REUNION_PRES REUNION_TNUM REUNION_CI REUNION_RMW REUNION_R34_NE REUNION_R34_SE REUNION_R34_SW REUNION_R34_NW REUNION_R50_NE REUNION_R50_SE REUNION_R50_SW REUNION_R50_NW REUNION_R64_NE REUNION_R64_SE REUNION_R64_SW REUNION_R64_NW BOM_LAT BOM_LON BOM_TYPE BOM_WIND BOM_PRES BOM_TNUM BOM_CI BOM_RMW BOM_R34_NE BOM_R34_SE BOM_R34_SW BOM_R34_NW BOM_R50_NE BOM_R50_SE BOM_R50_SW BOM_R50_NW BOM_R64_NE BOM_R64_SE BOM_R64_SW BOM_R64_NW BOM_ROCI BOM_POCI BOM_EYE BOM_POS_METHOD BOM_PRES_METHOD NADI_LAT NADI_LON NADI_CAT NADI_WIND NADI_PRES WELLINGTON_LAT WELLINGTON_LON WELLINGTON_WIND WELLINGTON_PRES DS824_LAT DS824_LON DS824_STAGE DS824_WIND DS824_PRES TD9636_LAT TD9636_LON TD9636_STAGE TD9636_WIND TD9636_PRES TD9635_LAT TD9635_LON TD9635_WIND TD9635_PRES TD9635_ROCI NEUMANN_LAT NEUMANN_LON NEUMANN_CLASS NEUMANN_WIND NEUMANN_PRES MLC_LAT MLC_LON MLC_CLASS MLC_WIND MLC_PRES USA_GUST BOM_GUST BOM_GUST_PER REUNION_GUST REUNION_GUST_PER USA_SEAHGT USA_SEARAD_NE USA_SEARAD_SE USA_SEARAD_SW USA_SEARAD_NW STORM_SPEED STORM_DIR
1949317N09158 1949 101 WP MM ALLYN 1949-11-13 00:00:00 TS 9.10000 158.200 main 1546 1525 O________OOO__ jtwc_wp WP201949 9.10000 158.200 30 -1 9.10000 158.200 TC 30 9.10000 158.200 1 30 9.10000 158.200 30 1003 120 8 270
1949317N09158 1949 101 WP MM ALLYN 1949-11-13 03:00:00 TS 9.10132 157.800 main 1525 1505 P________PPP__ WP201949 9.10010 157.798 30 -1 9.10010 157.798 TC 30 9.10498 157.806 1 31 9.10010 157.798 30 1002 120 8 270
1949317N09158 1949 101 WP MM ALLYN 1949-11-13 06:00:00 TS 9.10195 157.403 main 1505 1485 O________OPO__ jtwc_wp WP201949 9.10000 157.400 30 -1 9.10000 157.400 TC 30 9.10780 157.410 1 32 9.10000 157.400 30 1001 120 8 270
1949317N09158 1949 101 WP MM ALLYN 1949-11-13 09:00:00 TS 9.10163 157.008 main 1485 1465 P________PPP__ WP201949 9.09993 157.008 32 -1 9.09993 157.008 TC 32 9.10673 157.009 1 33 9.09993 157.008 32 1000 120 8 270
1949317N09158 1949 101 WP MM ALLYN 1949-11-13 12:00:00 TS 9.10000 156.600 main 1465 1447 O________OOO__ jtwc_wp WP201949 9.10000 156.600 35 0 9.10000 156.600 TC 35 9.10000 156.600 2 35 9.10000 156.600 35 999 120 8 270
1949317N09158 1949 101 WP MM ALLYN 1949-11-13 15:00:00 TS 9.09693 156.158 main 1447 1425 P________PPP__ WP201949 9.10000 156.150 40 0 9.10000 156.150 TC 40 9.08771 156.182 2 40 9.10000 156.150 40 997 120 9 270
1949317N09158 1949 101 WP MM ALLYN 1949-11-13 18:00:00 TS 9.09434 155.714 main 1425 1409 O________OPO__ jtwc_wp WP201949 9.10000 155.700 45 0 9.10000 155.700 TC 45 9.07736 155.757 2 45 9.10000 155.700 45 995 120 8 269
1949317N09158 1949 101 WP MM ALLYN 1949-11-13 21:00:00 TS 9.08889 155.307 main 1409 1394 P________PPP__ WP201949 9.09241 155.300 50 0 9.09241 155.300 TC 50 9.07832 155.329 2 50 9.09241 155.300 50 994 150 8 270
1949317N09158 1949 101 WP MM ALLYN 1949-11-14 00:00:00 TS 9.10000 154.900 main 1394 1381 O________OOO__ jtwc_wp WP201949 9.10000 154.900 55 0 9.10000 154.900 TC 55 9.10000 154.900 2 55 9.10000 154.900 55 993 180 8 273
1949317N09158 1949 101 WP MM ALLYN 1949-11-14 03:00:00 TS 9.13860 154.450 main 1381 1366 P________PPP__ WP201949 9.13500 154.450 57 0 9.13500 154.450 TC 57 9.14940 154.451 2 57 9.13500 154.450 57 991 180 9 273
1949317N09158 1949 101 WP MM ALLYN 1949-11-14 06:00:00 TS 9.14002 153.995 main 1366 1363 O_O______OPO__ jtwc_wp WP201949 9.20000 154.000 60 0 8.10000 153.900 1 23 998 9.20000 154.000 TC 60 9.22008 154.005 2 60 9.20000 154.000 60 990 180 9 273
1949317N09158 1949 101 WP MM ALLYN 1949-11-14 09:00:00 TS 9.18654 153.580 main 1366 1359 P_P______PPP__ WP201949 9.29249 153.570 62 0 8.31255 153.638 1 26 997 9.29249 153.570 TC 62 9.30569 153.582 2 62 9.29249 153.570 62 987 210 8 279
1949317N09158 1949 101 WP MM ALLYN 1949-11-14 12:00:00 TS 9.25789 153.232 main 1368 1364 O_O______OOO__ jtwc_wp WP201949 9.40000 153.200 65 1 8.50000 153.400 1 29 997 9.40000 153.200 TC 65 9.40000 153.200 3 65 9.40000 153.200 65 985 240 6 283
1949317N09158 1949 101 WP MM ALLYN 1949-11-14 15:00:00 TS 9.33009 152.974 main 1364 1362 P_P______PPP__ WP201949 9.49991 152.935 67 1 8.64996 153.200 1 33 996 9.49991 152.935 TC 67 9.50074 152.866 3 66 9.49991 152.935 67 982 240 5 291
1949317N09158 1949 101 WP MM ALLYN 1949-11-14 18:00:00 TS 9.44146 152.735 main 1370 1370 O_O______OPO__ jtwc_wp WP201949 9.60000 152.700 70 1 8.80000 153.000 2 38 996 9.60000 152.700 TC 70 9.60728 152.575 3 67 9.60000 152.700 70 979 240 6 294
1949317N09158 1949 101 WP MM ALLYN 1949-11-14 21:00:00 TS 9.56506 152.447 main 1388 1386 P_P______PPP__ WP201949 9.70754 152.385 70 1 8.99250 152.758 2 38 995 9.70754 152.385 TC 70 9.71018 152.322 3 68 9.70754 152.385 70 976 240 6 294
1949317N09158 1949 101 WP MM ALLYN 1949-11-15 00:00:00 TS 9.68000 152.180 main 1396 1394 O_O______OOO__ jtwc_wp WP201949 9.80000 152.100 70 1 9.20000 152.500 2 38 995 9.80000 152.100 TC 70 9.80000 152.100 4 70 9.80000 152.100 70 973 240 5 294
1949317N09158 1949 101 WP MM ALLYN 1949-11-15 03:00:00 TS 9.76717 151.994 main 1405 1404 P_P______PPP__ WP201949 9.85744 151.935 85 2 9.40748 152.250 2 43 994 9.85744 151.935 TC 85 9.85604 151.916 4 78 9.85744 151.935 85 969 210 4 295
1949317N09158 1949 101 WP MM ALLYN 1949-11-15 06:00:00 TS 9.83994 151.831 main 1404 1404 O_O______OPO__ jtwc_wp WP201949 9.90000 151.800 100 3 9.60000 152.000 3 48 993 9.90000 151.800 TC 100 9.89971 151.757 4 87 9.90000 151.800 100 966 180 4 292
1949317N09158 1949 101 WP MM ALLYN 1949-11-15 09:00:00 TS 9.90568 151.642 main 1413 1413 P_P______PPP__ WP201949 9.94247 151.622 102 3 9.75748 151.750 3 48 992 9.94247 151.622 TC 102 9.94353 151.595 4 96 9.94247 151.622 102 963 210 4 289
1949317N09158 1949 101 WP MM ALLYN 1949-11-15 12:00:00 TS 9.98000 151.420 main 1424 1419 O_O______OOO__ jtwc_wp WP201949 10.0000 151.400 105 3 9.90000 151.500 3 48 992 10.0000 151.400 TC 105 10.0000 151.400 4 105 10.0000 151.400 105 960 240 5 290
1949317N09158 1949 101 WP MM ALLYN 1949-11-15 15:00:00 TS 10.0801 151.155 main 1430 1424 P_P______PPP__ WP201949 10.0925 151.115 105 3 10.0500 151.257 3 53 991 10.0925 151.115 TC 105 10.0732 151.172 4 103 10.0925 151.115 105 955 270 6 291
1949317N09158 1949 101 WP MM ALLYN 1949-11-15 18:00:00 TS 10.1924 150.861 main 1431 1425 O_O______OPO__ jtwc_wp WP201949 10.2000 150.800 105 3 10.2000 151.000 3 58 990 10.2000 150.800 TC 105 10.1621 150.905 4 102 10.2000 150.800 105 951 300 6 290
1949317N09158 1949 101 WP MM ALLYN 1949-11-15 21:00:00 TS 10.2904 150.579 main 1433 1428 P_P______PPP__ WP201949 10.2773 150.537 102 3 10.3500 150.700 3 58 989 10.2773 150.537 TC 102 10.2700 150.585 4 101 10.2773 150.537 102 945 330 7 290
1949317N09158 1949 101 WP MM ALLYN 1949-11-16 00:00:00 TS 10.4200 150.240 main 1434 1434 O_O______OOO__ jtwc_wp WP201949 10.4000 150.200 100 3 10.5000 150.400 3 58 988 10.4000 150.200 TC 100 10.4000 150.200 4 100 10.4000 150.200 100 940 360 8 293
1949317N09158 1949 101 WP MM ALLYN 1949-11-16 03:00:00 TS 10.6246 149.796 main 1447 1445 P_P______PPP__ WP201949 10.6501 149.680 100 3 10.6273 150.195 3 63 986 10.6501 149.680 TC 100 10.5454 149.744 4 102 10.6501 149.680 100 935 330 10 294
1949317N09158 1949 101 WP MM ALLYN 1949-11-16 06:00:00 TS 10.8425 149.285 main 1460 1460 O_O______OPO__ jtwc_wp WP201949 10.9000 149.100 100 3 10.8000 149.900 4 68 985 10.9000 149.100 TC 100 10.7127 149.225 4 105 10.9000 149.100 100 930 300 11 290
1949317N09158 1949 101 WP MM ALLYN 1949-11-16 09:00:00 TS 10.9936 148.769 main 1475 1473 P_P______PPP__ WP201949 10.9923 148.607 105 3 11.0926 149.353 4 68 983 10.9923 148.607 TC 105 10.8985 148.669 4 107 10.9923 148.607 105 926 300 11 287
1949317N09158 1949 101 WP MM ALLYN 1949-11-16 12:00:00 TS 11.1600 148.220 main 1492 1491 O_O______OOO__ jtwc_wp WP201949 11.1000 148.100 110 3 11.4000 148.700 4 68 982 11.1000 148.100 TC 110 11.1000 148.100 4 110 11.1000 148.100 110 922 300 12 291
1949317N09158 1949 101 WP MM ALLYN 1949-11-16 15:00:00 TS 11.4235 147.637 main 1512 1512 P_P______PPP__ WP201949 11.3926 147.500 112 3 11.6298 148.115 4 72 981 11.3926 147.500 TC 112 11.3102 147.569 4 112 11.3926 147.500 112 919 330 13 295
1949317N09158 1949 101 WP MM ALLYN 1949-11-16 18:00:00 TS 11.6869 147.046 main 1546 1546 O_O______OPO__ jtwc_wp WP201949 11.7000 146.900 115 4 11.8000 147.500 4 77 980 11.7000 146.900 TC 115 11.5344 147.030 4 115 11.7000 146.900 115 917 360 12 291
1949317N09158 1949 101 WP MM ALLYN 1949-11-16 21:00:00 TS 11.8430 146.511 main 1557 1557 P_P______PPP__ WP201949 11.8495 146.430 117 4 11.9001 146.792 4 77 979 11.8495 146.430 TC 117 11.7664 146.475 4 117 11.8495 146.430 117 914 390 11 286
1949317N09158 1949 101 WP MM ALLYN 1949-11-17 00:00:00 TS 12.0000 145.940 main 1581 1581 O_O______OOO__ jtwc_wp WP201949 12.0000 145.900 120 4 12.0000 146.100 4 77 978 12.0000 145.900 TC 120 12.0000 145.900 4 120 12.0000 145.900 120 912 420 13 288
1949317N09158 1949 101 WP MM ALLYN 1949-11-17 03:00:00 TS 12.2601 145.218 main 1620 1620 P_P______PPP__ WP201949 12.3005 145.093 122 4 12.1697 145.535 4 82 976 12.3005 145.093 TC 122 12.2292 145.276 4 121 12.3005 145.093 122 908 480 15 291
1949317N09158 1949 101 WP MM ALLYN 1949-11-17 06:00:00 TS 12.5315 144.507 main 1652 1652 O_O______OPO__ jtwc_wp WP201949 12.6000 144.300 125 4 12.4000 145.000 5 87 975 12.6000 144.300 TC 125 12.4577 144.635 4 122 12.6000 144.300 125 905 540 13 291
1949317N09158 1949 101 WP MM ALLYN 1949-11-17 09:00:00 TS 12.7397 143.960 main 1682 1682 P_P______PPP__ WP201949 12.7721 143.797 125 4 12.6999 144.408 5 87 973 12.7721 143.797 TC 125 12.6823 144.001 4 123 12.7721 143.797 125 902 480 11 291
1949317N09158 1949 101 WP MM ALLYN 1949-11-17 12:00:00 TS 12.9200 143.480 main 1715 1715 O_O______OOO__ jtwc_wp WP201949 12.9000 143.400 125 4 13.0000 143.800 5 87 972 12.9000 143.400 TC 125 12.9000 143.400 4 125 12.9000 143.400 125 899 420 10 290
1949317N09158 1949 101 WP MM ALLYN 1949-11-17 15:00:00 TS 13.0875 142.986 main 1730 1723 P_P______PPP__ WP201949 13.0348 142.965 125 4 13.2225 143.185 5 87 971 13.0348 142.965 TC 125 13.1107 142.852 4 125 13.0348 142.965 125 895 480 10 290
1949317N09158 1949 101 WP MM ALLYN 1949-11-17 18:00:00 TS 13.2629 142.488 main 1735 1727 O_O______OPO__ jtwc_wp WP201949 13.2000 142.500 125 4 13.4000 142.600 5 87 970 13.2000 142.500 TC 125 13.3144 142.340 4 125 13.2000 142.500 125 892 540 11 291
1949317N09158 1949 101 WP MM ALLYN 1949-11-17 21:00:00 TS 13.4807 141.954 main 1737 1729 P_P______PPP__ WP201949 13.4501 141.943 125 4 13.5423 142.085 5 87 970 13.4501 141.943 TC 125 13.5108 141.858 4 125 13.4501 141.943 125 889 570 11 293
1949317N09158 1949 101 WP MM ALLYN 1949-11-18 00:00:00 TS 13.7000 141.440 main 1721 1682 O_O______OOO__ jtwc_wp WP201949 13.7000 141.400 125 4 13.7000 141.600 5 87 970 13.7000 141.400 TC 125 13.7000 141.400 4 125 13.7000 141.400 125 886 600 10 293
1949317N09158 1949 101 WP MM ALLYN 1949-11-18 03:00:00 TS 13.8800 141.000 main 1682 1642 P_P______PPP__ WP201949 13.8573 140.985 125 4 13.9424 141.093 5 87 970 13.8573 140.985 TC 125 13.8858 140.953 4 125 13.8573 140.985 125 885 540 9 293
1949317N09158 1949 101 WP MM ALLYN 1949-11-18 06:00:00 TS 14.0529 140.585 main 1644 1603 O_O______OPO__ jtwc_wp WP201949 14.0000 140.600 125 4 14.2000 140.600 5 87 970 14.0000 140.600 TC 125 14.0644 140.527 4 125 14.0000 140.600 125 885 480 9 294
1949317N09158 1949 101 WP MM ALLYN 1949-11-18 09:00:00 TS 14.2471 140.150 main 1603 1555 P_P______PPP__ WP201949 14.1924 140.165 125 4 14.4224 140.142 5 87 970 14.1924 140.165 TC 125 14.2359 140.113 4 125 14.1924 140.165 125 884 510 9 294
1949317N09158 1949 101 WP MM ALLYN 1949-11-18 12:00:00 TS 14.4400 139.700 main 1555 1506 O_O______OOO__ jtwc_wp WP201949 14.4000 139.700 125 4 14.6000 139.700 5 87 970 14.4000 139.700 TC 125 14.4000 139.700 4 125 14.4000 139.700 125 884 540 10 292
1949317N09158 1949 101 WP MM ALLYN 1949-11-18 15:00:00 TS 14.6220 139.211 main 1506 1465 P_P______PPP__ WP201949 14.6151 139.185 125 4 14.7075 139.235 5 87 970 14.6151 139.185 TC 125 14.5571 139.267 4 125 14.6151 139.185 125 885 540 10 290
1949317N09158 1949 101 WP MM ALLYN 1949-11-18 18:00:00 TS 14.7815 138.747 main 1457 1427 O_O______OPO__ jtwc_wp WP201949 14.8000 138.700 125 4 14.8000 138.800 5 87 970 14.8000 138.700 TC 125 14.7073 138.835 4 125 14.8000 138.700 125 886 540 9 289
1949317N09158 1949 101 WP MM ALLYN 1949-11-18 21:00:00 TS 14.9021 138.374 main 1427 1387 P_P______PPP__ WP201949 14.9073 138.335 125 4 14.9348 138.457 5 87 970 14.9073 138.335 TC 125 14.8540 138.410 4 125 14.9073 138.335 125 888 540 7 289
1949317N09158 1949 101 WP MM ALLYN 1949-11-19 00:00:00 TS 15.0200 138.020 main 1387 1350 O_O______OOO__ jtwc_wp WP201949 15.0000 138.000 125 4 15.1000 138.100 5 87 970 15.0000 138.000 TC 125 15.0000 138.000 4 125 15.0000 138.000 125 890 540 8 290
1949317N09158 1949 101 WP MM ALLYN 1949-11-19 03:00:00 TS 15.1740 137.606 main 1350 1310 P_P______PPP__ WP201949 15.1425 137.600 125 4 15.2925 137.630 5 87 970 15.1425 137.600 TC 125 15.1498 137.602 4 125 15.1425 137.600 125 892 510 9 292
1949317N09158 1949 101 WP MM ALLYN 1949-11-19 06:00:00 TS 15.3399 137.184 main 1310 1275 O_O______OPO__ jtwc_wp WP201949 15.3000 137.200 125 4 15.5000 137.100 5 87 970 15.3000 137.200 TC 125 15.2997 137.220 4 125 15.3000 137.200 125 895 480 9 292
1949317N09158 1949 101 WP MM ALLYN 1949-11-19 09:00:00 TS 15.5044 136.777 main 1275 1236 P_P______PPP__ WP201949 15.4575 136.827 125 4 15.7000 136.550 5 87 970 15.4575 136.827 TC 125 15.4498 136.852 4 125 15.4575 136.827 125 897 510 8 293
1949317N09158 1949 101 WP MM ALLYN 1949-11-19 12:00:00 TS 15.6600 136.400 main 1240 1212 O_O______OOO__ jtwc_wp WP201949 15.6000 136.500 125 4 15.9000 136.000 5 87 970 15.6000 136.500 TC 125 15.6000 136.500 4 125 15.6000 136.500 125 900 540 7 293
1949317N09158 1949 101 WP MM ALLYN 1949-11-19 15:00:00 TS 15.7845 136.086 main 1212 1185 P_P______PPP__ WP201949 15.6923 136.257 125 4 16.0997 135.507 5 87 970 15.6923 136.257 TC 125 15.7458 136.152 4 123 15.6923 136.257 125 903 480 7 293
1949317N09158 1949 101 WP MM ALLYN 1949-11-19 18:00:00 TS 15.9185 135.764 main 1185 1153 O_O______OPO__ jtwc_wp WP201949 15.8000 136.000 125 4 16.3000 135.000 5 87 970 15.8000 136.000 TC 125 15.8923 135.820 4 122 15.8000 136.000 125 906 420 8 294
1949317N09158 1949 101 WP MM ALLYN 1949-11-19 21:00:00 TS 16.1072 135.338 main 1143 1112 P_P______PPP__ WP201949 15.9926 135.608 122 4 16.5153 134.363 5 87 970 15.9926 135.608 TC 122 16.0427 135.502 4 121 15.9926 135.608 122 909 450 9 295
1949317N09158 1949 101 WP MM ALLYN 1949-11-20 00:00:00 TS 16.3000 134.920 main 1112 1087 O_O______OOO__ jtwc_wp WP201949 16.2000 135.200 120 4 16.7000 133.800 5 87 970 16.2000 135.200 TC 120 16.2000 135.200 4 120 16.2000 135.200 120 913 480 8 296
1949317N09158 1949 101 WP MM ALLYN 1949-11-20 03:00:00 TS 16.4440 134.609 main 1087 1072 P_P______PPP__ WP201949 16.3499 134.877 120 4 16.8147 133.505 5 87 970 16.3499 134.877 TC 120 16.3554 134.910 4 117 16.3499 134.877 120 914 540 6 297
1949317N09158 1949 101 WP MM ALLYN 1949-11-20 06:00:00 TS 16.5839 134.347 main 1068 1054 O_O______OPO__ jtwc_wp WP201949 16.5000 134.600 120 4 16.9000 133.300 5 87 970 16.5000 134.600 TC 120 16.5197 134.635 4 115 16.5000 134.600 120 916 600 6 302
1949317N09158 1949 101 WP MM ALLYN 1949-11-20 09:00:00 TS 16.7538 134.086 main 1059 1036 P_P______PPP__ WP201949 16.6924 134.350 115 4 16.9925 133.015 5 87 970 16.6924 134.350 TC 115 16.6992 134.367 4 112 16.6924 134.350 115 918 570 6 305
1949317N09158 1949 101 WP MM ALLYN 1949-11-20 12:00:00 TS 16.9400 133.820 main 1036 1020 O_O______OOO__ jtwc_wp WP201949 16.9000 134.100 110 3 17.1000 132.700 5 87 970 16.9000 134.100 TC 110 16.9000 134.100 4 110 16.9000 134.100 110 921 540 7 304
1949317N09158 1949 101 WP MM ALLYN 1949-11-20 15:00:00 TS 17.1267 133.509 main 1020 1005 P_P______PPP__ WP201949 17.0850 133.800 105 3 17.2500 132.350 5 87 970 17.0850 133.800 TC 105 17.1286 133.793 4 107 17.0850 133.800 105 924 540 7 304
1949317N09158 1949 101 WP MM ALLYN 1949-11-20 18:00:00 TS 17.3355 133.198 main 1005 998 O_O______OPO__ jtwc_wp WP201949 17.3000 133.500 100 3 17.4000 132.000 5 87 970 17.3000 133.500 TC 100 17.3777 133.490 4 105 17.3000 133.500 100 927 540 7 309
1949317N09158 1949 101 WP MM ALLYN 1949-11-20 21:00:00 TS 17.5906 132.914 main 998 989 P_P______PPP__ WP201949 17.6075 133.220 100 3 17.4924 131.692 5 87 970 17.6075 133.220 TC 100 17.6380 133.218 4 102 17.6075 133.220 100 929 540 7 316
1949317N09158 1949 101 WP MM ALLYN 1949-11-21 00:00:00 TS 17.8400 132.680 main 989 980 O_O______OOO__ jtwc_wp WP201949 17.9000 133.000 100 3 17.6000 131.400 5 87 970 17.9000 133.000 TC 100 17.9000 133.000 4 100 17.9000 133.000 100 932 540 6 318
1949317N09158 1949 101 WP MM ALLYN 1949-11-21 03:00:00 TS 18.0117 132.509 main 980 975 P_P______PPP__ WP201949 18.0424 132.870 100 3 17.7775 131.085 5 87 970 18.0424 132.870 TC 100 18.1538 132.851 4 100 18.0424 132.870 100 935 540 5 323
1949317N09158 1949 101 WP MM ALLYN 1949-11-21 06:00:00 TS 18.2014 132.392 main 981 977 O_O______OPO__ jtwc_wp WP201949 18.2000 132.800 100 3 18.0000 130.800 5 87 970 18.2000 132.800 TC 100 18.4072 132.760 4 100 18.2000 132.800 100 938 540 5 338
1949317N09158 1949 101 WP MM ALLYN 1949-11-21 09:00:00 TS 18.5129 132.298 main 988 988 P_P______PPP__ WP201949 18.5575 132.735 100 3 18.2350 130.570 5 87 970 18.5575 132.735 TC 100 18.6570 132.714 4 100 18.5575 132.735 100 941 480 6 347
1949317N09158 1949 101 WP MM ALLYN 1949-11-21 12:00:00 TS 18.8200 132.240 main 996 996 O_O______OOO__ jtwc_wp WP201949 18.9000 132.700 100 3 18.5000 130.400 5 87 970 18.9000 132.700 TC 100 18.9000 132.700 4 100 18.9000 132.700 100 945 420 5 349
1949317N09158 1949 101 WP MM ALLYN 1949-11-21 15:00:00 TS 18.9721 132.202 main 1008 1008 P_P______PPP__ WP201949 19.0000 132.685 95 2 18.7850 130.270 5 87 970 19.0000 132.685 TC 95 19.0753 132.684 4 96 19.0000 132.685 95 948 420 3 351
1949317N09158 1949 101 WP MM ALLYN 1949-11-21 18:00:00 TS 19.1305 132.200 main 1014 1014 O_O______OPO__ jtwc_wp WP201949 19.1000 132.700 90 2 19.1000 130.200 5 87 970 19.1000 132.700 TC 90 19.2525 132.698 4 92 19.1000 132.700 90 951 420 4 2
1949317N09158 1949 101 WP MM ALLYN 1949-11-21 21:00:00 TS 19.4107 132.223 main 1033 1033 P_P______PPP__ WP201949 19.3825 132.735 87 2 19.4275 130.170 5 87 969 19.3825 132.735 TC 87 19.4784 132.738 4 88 19.3825 132.735 87 954 420 7 6
1949317N09158 1949 101 WP MM ALLYN 1949-11-22 00:00:00 TS 19.8000 132.280 main 1062 1062 O_O______OOO__ jtwc_wp WP201949 19.8000 132.800 85 2 19.8000 130.200 5 87 968 19.8000 132.800 TC 85 19.8000 132.800 4 85 19.8000 132.800 85 957 420 9 8
1949317N09158 1949 101 WP MM ALLYN 1949-11-22 03:00:00 TS 20.2722 132.352 main 1080 1080 P_P______PPP__ WP201949 20.3125 132.892 82 1 20.1899 130.248 5 92 966 20.3125 132.892 TC 82 20.2336 132.835 4 82 20.3125 132.892 82 959 480 11 9
1949317N09158 1949 101 WP MM ALLYN 1949-11-22 06:00:00 TS 20.8340 132.460 main 1101 1088 O_O______OPO__ jtwc_wp WP201949 20.9000 133.000 80 1 20.7000 130.400 5 97 965 20.9000 133.000 TC 80 20.7698 132.898 4 80 20.9000 133.000 80 962 540 12 10
1949317N09158 1949 101 WP MM ALLYN 1949-11-22 09:00:00 TS 21.4181 132.570 main 1088 1015 P_P______PPP__ WP201949 21.4399 133.056 77 1 21.3748 130.668 5 97 963 21.4399 133.056 TC 77 21.3960 133.011 4 77 21.4399 133.056 77 964 540 13 13
1949317N09158 1949 101 WP MM ALLYN 1949-11-22 12:00:00 TS 22.1200 132.780 main 1015 924 O_O______OOO__ jtwc_wp WP201949 22.1000 133.200 75 1 22.2000 131.100 5 97 962 22.1000 133.200 TC 75 22.1000 133.200 4 75 22.1000 133.200 75 966 540 17 19
1949317N09158 1949 101 WP MM ALLYN 1949-11-22 15:00:00 TS 23.0123 133.160 main 926 842 P_P______PPP__ WP201949 23.0352 133.561 72 1 23.1200 131.690 5 97 961 23.0352 133.561 TC 72 22.8359 133.426 4 72 23.0352 133.561 72 968 570 20 23
1949317N09158 1949 101 WP MM ALLYN 1949-11-22 18:00:00 TS 23.9486 133.628 main 842 774 O_O______OPO__ jtwc_wp WP201949 24.0000 134.000 70 1 24.1000 132.400 5 97 960 24.0000 134.000 TC 70 23.6432 133.738 4 70 24.0000 134.000 70 971 600 19 25
1949317N09158 1949 101 WP MM ALLYN 1949-11-22 21:00:00 TS 24.7363 134.038 main 774 717 P_P______PPP__ WP201949 24.7069 134.307 67 1 25.0570 133.114 5 97 960 24.7069 134.307 TC 67 24.5039 134.156 4 67 24.7069 134.307 67 973 570 18 28
1949317N09158 1949 101 WP MM ALLYN 1949-11-23 00:00:00 TS 25.5200 134.540 main 717 669 O_O______OOO__ jtwc_wp WP201949 25.4000 134.700 65 1 26.0000 133.900 5 97 961 25.4000 134.700 TC 65 25.4000 134.700 4 65 25.4000 134.700 65 975 540 20 32
1949317N09158 1949 101 WP MM ALLYN 1949-11-23 03:00:00 TS 26.4023 135.205 main 669 638 P_P______PPP__ WP201949 26.2622 135.311 65 1 26.9220 134.764 5 97 961 26.2622 135.311 TC 65 26.3028 135.329 4 66 26.2622 135.311 65 976 540 22 36
1949317N09158 1949 101 WP MM ALLYN 1949-11-23 06:00:00 TS 27.3264 136.019 main 638 587 O_O______OPO__ jtwc_wp WP201949 27.2000 136.100 65 1 27.8000 135.700 5 97 962 27.2000 136.100 TC 65 27.2320 136.093 4 67 27.2000 136.100 65 978 540 24 40
1949317N09158 1949 101 WP MM ALLYN 1949-11-23 09:00:00 TS 28.2544 136.937 main 578 515 P_P______PPP__ WP201949 28.1576 137.013 67 1 28.6290 136.664 5 97 962 28.1576 137.013 TC 67 28.1702 136.985 4 68 28.1576 137.013 67 979 480 25 43
1949317N09158 1949 101 WP MM ALLYN 1949-11-23 12:00:00 TS 29.1600 137.940 main 509 480 O_O______OOO__ jtwc_wp WP201949 29.1000 138.000 70 1 29.4000 137.700 5 97 963 29.1000 138.000 TC 70 29.1000 138.000 4 70 29.1000 138.000 70 981 420 24 44
1949317N09158 1949 101 WP MM ALLYN 1949-11-23 15:00:00 TS 29.9835 138.871 main 479 436 P_P______PPP__ WP201949 29.9545 138.865 75 1 30.0971 138.749 5 92 964 29.9545 138.865 TC 75 29.9569 139.011 4 71 29.9545 138.865 75 982 450 24 47
1949317N09158 1949 101 WP MM ALLYN 1949-11-23 18:00:00 TS 30.8012 139.971 main 438 387 O_O______OPO__ jtwc_wp WP201949 30.8000 139.900 80 1 30.8000 140.000 5 87 965 30.8000 139.900 TC 80 30.8057 140.153 4 72 30.8000 139.900 80 983 480 27 52
1949317N09158 1949 101 WP MM ALLYN 1949-11-23 21:00:00 TS 31.6655 141.391 main 382 372 P_P______PPP__ WP201949 31.6834 141.296 77 1 31.6001 141.603 5 87 966 31.6834 141.296 TC 77 31.6771 141.467 4 73 31.6834 141.296 77 984 480 32 56
1949317N09158 1949 101 WP MM ALLYN 1949-11-24 00:00:00 TS 32.5600 143.080 main 381 381 O_O______OOO__ jtwc_wp WP201949 32.6000 143.000 75 1 32.4000 143.400 5 87 968 32.6000 143.000 TC 75 32.6000 143.000 4 75 32.6000 143.000 75 985 480 35 59
1949317N09158 1949 101 WP MM ALLYN 1949-11-24 03:00:00 TS 33.4471 144.925 main 446 446 P_P______PPP__ WP201949 33.5189 144.915 72 1 33.0632 145.090 5 82 970 33.5189 144.915 TC 72 33.6156 144.788 4 71 33.5189 144.915 72 986 420 37 60
1949317N09158 1949 101 WP MM ALLYN 1949-11-24 06:00:00 TS 34.3930 146.963 main 572 572 O_O______OPO__ jtwc_wp WP201949 34.5000 147.000 70 1 33.8000 147.000 4 77 972 34.5000 147.000 TC 70 34.6652 146.814 4 67 34.5000 147.000 70 987 360 40 60
1949317N09158 1949 101 WP MM ALLYN 1949-11-24 09:00:00 TS 35.4691 149.135 main 739 739 P_P______PPP__ WP201949 35.6258 149.098 65 1 34.7622 149.373 4 72 973 35.6258 149.098 TC 65 35.7059 149.009 4 63 35.6258 149.098 65 988 330 42 60
1949317N09158 1949 101 WP MM ALLYN 1949-11-24 12:00:00 MX 36.5200 151.440 main 878 878 O_O______OOO__ jtwc_wp WP201949 36.7000 151.300 60 0 35.8000 152.000 9 68 975 36.7000 151.300 TC 60 36.7000 151.300 2 60 36.7000 151.300 60 989 300 42 63
1949317N09158 1949 101 WP MM ALLYN 1949-11-24 15:00:00 MX 37.3724 153.816 main 952 952 P_P______PPP__ WP201949 37.4766 153.623 55 0 36.8099 154.584 9 976 37.4766 153.623 TC 55 37.6223 153.624 2 56 37.4766 153.623 55 990 300 42 67
1949317N09158 1949 101 WP MM ALLYN 1949-11-24 18:00:00 MX 38.1348 156.285 main 995 990 O_O______OPO__ jtwc_wp WP201949 38.2000 156.000 50 0 37.7000 157.300 9 978 38.2000 156.000 TC 50 38.4753 155.977 2 52 38.2000 156.000 50 991 300 41 68
1949317N09158 1949 101 WP MM ALLYN 1949-11-24 21:00:00 MX 38.9534 158.684 main 1036 1036 P_P______PPP__ WP201949 39.1883 158.133 47 0 38.2731 160.096 9 979 39.1883 158.133 TC 47 39.2662 158.367 2 48 39.0617 158.383 47 991 270 43 69
1949317N09158 1949 101 WP MM ALLYN 1949-11-25 00:00:00 MX 39.6571 161.486 main 1146 1146 O_O______OOO__ jtwc_wp WP201949 40.0000 160.800 45 0 38.8000 163.200 9 980 40.0000 160.800 TC 45 40.0000 160.800 2 45 40.0000 160.800 45 992 240 53 79
1949317N09158 1949 101 WP MM ALLYN 1949-11-25 03:00:00 MX 39.9622 165.458 main 1356 1356 P_P______P____ WP201949 40.1820 164.749 42 0 39.5226 166.875 9 980 40.1820 164.749 TC 42 2 61 86
1949317N09158 1949 101 WP MM ALLYN 1949-11-25 06:00:00 MX 40.0545 169.491 main 1540 1540 O_O______O____ jtwc_wp WP201949 40.0000 169.000 40 0 40.2000 170.800 9 980 40.0000 169.000 TC 40 2 59 91
1949317N09158 1949 101 WP MM ALLYN 1949-11-25 09:00:00 MX 39.8876 173.125 main 1745 1745 P_P______P____ WP201949 39.6886 172.756 40 0 40.6837 174.600 9 980 39.6886 172.756 TC 40 2 52 93
1949317N09158 1949 101 WP MM ALLYN 1949-11-25 12:00:00 MX 39.7556 176.256 main 1835 1706 O_O______O____ jtwc_wp WP201949 39.6000 176.000 40 0 41.0000 178.300 9 980 39.6000 176.000 TC 40 43 87
1949317N09158 1949 101 WP MM ALLYN 1949-11-25 15:00:00 TS 40.1086 178.715 main 1702 1536 P________P____ WP201949 40.1086 178.715 40 0 9 40.1086 178.715 TC 40 38 71
1949317N09158 1949 101 EP CP ALLYN 1949-11-25 18:00:00 TS 41.0000 181.000 main 1522 1362 O________O____ jtwc_wp WP201949 41.0000 -179.000 40 0 41.0000 181.000 TC 40 38 61
1949317N09158 1949 101 EP CP ALLYN 1949-11-25 21:00:00 TS 41.9491 183.115 main 1358 1200 P________P____ WP201949 41.9491 -176.885 37 0 41.9491 -176.885 TC 37 36 56
1949317N09158 1949 101 EP CP ALLYN 1949-11-26 00:00:00 TS 43.0000 185.000 main 1187 1067 O________O____ jtwc_wp WP201949 43.0000 -175.000 35 0 43.0000 185.000 TC 35 31 53
1949317N09158 1949 101 EP CP ALLYN 1949-11-26 03:00:00 TS 43.8287 186.538 main 1064 909 P________P____ WP201949 43.8287 -173.462 35 0 43.8287 -173.462 TC 35 32 52
1949317N09158 1949 101 EP CP ALLYN 1949-11-26 06:00:00 TS 45.0000 188.500 main 896 688 O________O____ jtwc_wp WP201949 45.0000 -171.500 35 0 45.0000 188.500 TC 35 47 51
1949317N09158 1949 101 EP CP ALLYN 1949-11-26 09:00:00 TS 46.8467 191.730 main 677 528 P________P____ WP201949 46.8467 -168.270 35 0 46.8467 -168.270 TC 35 65 52
1949317N09158 1949 101 EP CP ALLYN 1949-11-26 12:00:00 TS 49.0000 196.000 main 525 O________O____ jtwc_wp WP201949 49.0000 -164.000 35 0 49.0000 196.000 TC 35 71 52

デジタル台風データ・検索

IBTrACS Databaseについて

本データベースは、米国NOAAが公開する1842年以降の世界の熱帯低気圧のベストトラックデータアーカイブInternational Best Track Archive for Climate Stewardship (IBTrACS)を、ウェブで閲覧しやすい形式に変換したものです。

最終更新日:2021-11-26